Time;durP1;ratioP1;P1;durP2;ratioP2;P2;SDS_P1;SDS_P2;PMS_P1;PMS_P2;Temp;Humidity;BMP_temperature;BMP_pressure;BME280_temperature;BME280_humidity;BME280_pressure;Samples;Min_cycle;Max_cycle;Signal;HPM_P1;HPM_P2
2022/02/19 00:01:08;;;;;;;11.57;4.50;;;;;;;;;;4961358;28;20115;-70
2022/02/19 00:03:34;;;;;;;7.30;4.25;;;;;;;;;;4963551;28;20479;-77
2022/02/19 00:06:00;;;;;;;7.68;3.97;;;;;;;;;;4962522;28;20498;-71
2022/02/19 00:08:26;;;;;;;7.78;3.65;;;;;;;;;;4963404;28;20033;-78
2022/02/19 00:10:52;;;;;;;6.18;4.18;;;;;;;;;;4962698;28;20403;-79
2022/02/19 00:13:19;;;;;;;7.85;3.65;;;;;;;;;;4963869;28;20416;-78
2022/02/19 00:15:47;;;;;;;9.40;4.78;;;;;;;;;;4963485;28;20124;-79
2022/02/19 00:18:13;;;;;;;7.63;4.20;;;;;;;;;;4963330;28;20022;-79
2022/02/19 00:20:39;;;;;;;7.20;4.25;;;;;;;;;;4961964;28;20030;-78
2022/02/19 00:23:06;;;;;;;9.02;5.10;;;;;;;;;;4941511;28;20058;-77
2022/02/19 00:25:32;;;;;;;5.55;3.55;;;;;;;;;;4983026;28;20030;-79
2022/02/19 00:27:58;;;;;;;8.55;3.63;;;;;;;;;;4982640;28;20030;-70
2022/02/19 00:30:24;;;;;;;8.43;4.57;;;;;;;;;;4982900;28;20117;-77
2022/02/19 00:32:50;;;;;;;8.15;4.57;;;;;;;;;;4981600;28;20038;-79
2022/02/19 00:35:18;;;;;;;5.55;3.78;;;;;;;;;;4950874;28;20613;-77
2022/02/19 00:37:44;;;;;;;5.97;3.38;;;;;;;;;;4945675;28;20119;-78
2022/02/19 00:40:11;;;;;;;8.25;3.70;;;;;;;;;;4948380;28;20498;-78
2022/02/19 00:42:37;;;;;;;7.47;3.83;;;;;;;;;;4971940;28;20041;-77
2022/02/19 00:45:03;;;;;;;5.95;3.47;;;;;;;;;;4966835;28;20058;-74
2022/02/19 00:47:30;;;;;;;6.45;3.38;;;;;;;;;;4967000;28;20494;-75
2022/02/19 00:49:56;;;;;;;9.02;3.65;;;;;;;;;;4965925;28;20042;-76
2022/02/19 00:52:23;;;;;;;8.15;4.15;;;;;;;;;;4950850;28;20035;-78
2022/02/19 00:54:49;;;;;;;9.07;4.30;;;;;;;;;;4946350;28;20070;-78
2022/02/19 00:57:15;;;;;;;6.78;4.10;;;;;;;;;;4947886;29;20028;-77
2022/02/19 00:59:42;;;;;;;6.25;4.05;;;;;;;;;;4947475;28;20039;-74
2022/02/19 01:02:08;;;;;;;5.50;3.67;;;;;;;;;;4946226;29;20035;-78
2022/02/19 01:04:34;;;;;;;7.05;3.42;;;;;;;;;;4947051;28;20050;-78
2022/02/19 01:07:00;;;;;;;7.43;3.20;;;;;;;;;;4945423;29;20024;-77
2022/02/19 01:09:27;;;;;;;5.97;3.90;;;;;;;;;;4947257;29;20031;-75
2022/02/19 01:11:53;;;;;;;6.18;4.10;;;;;;;;;;4947430;28;20078;-78
2022/02/19 01:14:20;;;;;;;6.93;3.78;;;;;;;;;;4946813;29;20042;-79
2022/02/19 01:16:46;;;;;;;9.75;4.22;;;;;;;;;;4946974;28;20024;-75
2022/02/19 01:19:12;;;;;;;10.18;4.53;;;;;;;;;;4949311;28;20042;-76
2022/02/19 01:21:38;;;;;;;8.60;4.05;;;;;;;;;;4957845;28;20660;-74
2022/02/19 01:24:05;;;;;;;8.38;4.55;;;;;;;;;;4948848;29;20129;-77
2022/02/19 01:26:31;;;;;;;11.13;4.90;;;;;;;;;;4954710;28;20033;-70
2022/02/19 01:28:58;;;;;;;17.80;4.80;;;;;;;;;;4950613;28;20031;-74
2022/02/19 01:31:24;;;;;;;8.40;4.80;;;;;;;;;;4947794;29;20028;-78
2022/02/19 01:33:51;;;;;;;7.57;4.63;;;;;;;;;;4948819;28;20115;-77
2022/02/19 01:36:17;;;;;;;9.95;4.93;;;;;;;;;;4948527;28;20019;-77
2022/02/19 01:38:43;;;;;;;5.85;4.13;;;;;;;;;;4956930;28;20022;-77
2022/02/19 01:41:09;;;;;;;11.43;4.78;;;;;;;;;;4987622;28;20037;-77
2022/02/19 01:43:35;;;;;;;14.30;5.40;;;;;;;;;;4987587;28;20034;-75
2022/02/19 01:46:02;;;;;;;10.60;5.38;;;;;;;;;;4985886;28;20492;-78
2022/02/19 01:48:28;;;;;;;11.70;4.97;;;;;;;;;;4986399;28;20049;-73
2022/02/19 01:50:54;;;;;;;10.07;4.40;;;;;;;;;;4950691;28;20182;-70
2022/02/19 01:53:22;;;;;;;11.75;5.55;;;;;;;;;;4968088;28;20034;-77
2022/02/19 01:55:48;;;;;;;7.95;4.80;;;;;;;;;;4966588;28;20022;-78
2022/02/19 01:58:15;;;;;;;7.50;4.30;;;;;;;;;;4967579;28;20031;-78
2022/02/19 02:00:41;;;;;;;9.32;4.65;;;;;;;;;;4967592;28;20023;-74
2022/02/19 02:03:07;;;;;;;10.82;4.30;;;;;;;;;;4967018;28;20633;-79
2022/02/19 02:05:34;;;;;;;9.07;4.72;;;;;;;;;;4967294;28;20463;-74
2022/02/19 02:08:04;;;;;;;10.90;5.15;;;;;;;;;;4966233;28;20538;-79
2022/02/19 02:10:31;;;;;;;8.90;5.10;;;;;;;;;;4967353;28;20050;-80
2022/02/19 02:12:57;;;;;;;10.05;5.80;;;;;;;;;;4967400;28;20026;-79
2022/02/19 02:15:28;;;;;;;11.02;5.10;;;;;;;;;;4967240;28;20018;-77
2022/02/19 02:17:54;;;;;;;11.45;5.55;;;;;;;;;;4967164;28;20443;-76
2022/02/19 02:20:20;;;;;;;9.77;5.80;;;;;;;;;;4967312;28;20590;-75
2022/02/19 02:22:46;;;;;;;11.40;5.35;;;;;;;;;;4948713;28;20078;-75
2022/02/19 02:25:13;;;;;;;9.02;4.35;;;;;;;;;;4947779;29;20059;-78
2022/02/19 02:27:39;;;;;;;13.93;4.80;;;;;;;;;;4947661;29;20026;-76
2022/02/19 02:30:06;;;;;;;9.30;4.90;;;;;;;;;;4947635;28;20046;-76
2022/02/19 02:32:32;;;;;;;10.35;5.03;;;;;;;;;;4947852;29;20460;-76
2022/02/19 02:34:58;;;;;;;12.77;4.68;;;;;;;;;;4946226;29;20035;-77
2022/02/19 02:37:25;;;;;;;9.85;4.43;;;;;;;;;;4947749;28;20387;-73
2022/02/19 02:39:52;;;;;;;9.32;4.43;;;;;;;;;;4947278;28;20361;-77
2022/02/19 02:42:21;;;;;;;8.18;3.83;;;;;;;;;;4962754;28;20054;-78
2022/02/19 02:44:48;;;;;;;8.27;4.13;;;;;;;;;;4966652;28;20047;-79
2022/02/19 02:47:14;;;;;;;7.90;4.57;;;;;;;;;;4965107;28;20018;-79
2022/02/19 02:49:40;;;;;;;7.72;4.50;;;;;;;;;;4966818;28;20486;-77
2022/02/19 02:52:10;;;;;;;8.40;4.38;;;;;;;;;;4966659;28;20047;-76
2022/02/19 02:54:37;;;;;;;10.02;4.07;;;;;;;;;;4965598;28;20062;-77
2022/02/19 02:57:03;;;;;;;9.07;4.65;;;;;;;;;;4966205;28;20019;-79
2022/02/19 02:59:29;;;;;;;7.13;4.35;;;;;;;;;;4965773;28;20027;-73
2022/02/19 03:01:55;;;;;;;9.20;3.83;;;;;;;;;;4963324;28;20673;-77
2022/02/19 03:04:21;;;;;;;11.73;4.50;;;;;;;;;;4966586;28;20450;-75
2022/02/19 03:06:48;;;;;;;7.30;3.72;;;;;;;;;;4966317;28;20034;-79
2022/02/19 03:09:14;;;;;;;10.18;4.30;;;;;;;;;;4966065;28;20035;-73
2022/02/19 03:11:40;;;;;;;9.43;3.50;;;;;;;;;;4956774;28;20038;-75
2022/02/19 03:14:06;;;;;;;8.23;3.70;;;;;;;;;;4945683;29;20027;-75
2022/02/19 03:16:33;;;;;;;7.40;4.20;;;;;;;;;;4947118;29;20023;-77
2022/02/19 03:18:59;;;;;;;8.25;4.10;;;;;;;;;;4951985;28;20038;-75
2022/02/19 03:21:26;;;;;;;7.45;3.72;;;;;;;;;;4963756;28;20085;-77
2022/02/19 03:23:52;;;;;;;9.57;4.43;;;;;;;;;;4964616;28;20042;-77
2022/02/19 03:26:19;;;;;;;8.85;4.45;;;;;;;;;;4968483;28;20171;-79
2022/02/19 03:28:45;;;;;;;5.88;3.72;;;;;;;;;;4968287;28;20026;-79
2022/02/19 03:31:11;;;;;;;8.10;4.15;;;;;;;;;;4967090;28;20031;-78
2022/02/19 03:33:37;;;;;;;10.88;5.10;;;;;;;;;;4968499;28;20391;-77
2022/02/19 03:36:03;;;;;;;10.77;5.28;;;;;;;;;;4968407;28;20034;-78
2022/02/19 03:38:30;;;;;;;14.43;5.72;;;;;;;;;;4968119;28;20019;-77
2022/02/19 03:40:56;;;;;;;13.65;6.20;;;;;;;;;;4959763;28;20114;-77
2022/02/19 03:43:22;;;;;;;15.48;6.50;;;;;;;;;;4948576;28;20159;-74
2022/02/19 03:45:48;;;;;;;14.32;6.82;;;;;;;;;;4949303;29;20027;-77
2022/02/19 03:48:14;;;;;;;24.83;8.65;;;;;;;;;;4949059;29;20098;-78
2022/02/19 03:50:40;;;;;;;19.45;9.57;;;;;;;;;;4948672;29;20030;-78
2022/02/19 03:53:06;;;;;;;32.55;12.20;;;;;;;;;;4949252;28;20028;-77
2022/02/19 03:55:33;;;;;;;31.35;10.95;;;;;;;;;;4947568;28;20169;-78
2022/02/19 03:57:59;;;;;;;41.47;15.23;;;;;;;;;;4948863;28;20027;-77
2022/02/19 04:00:25;;;;;;;43.22;16.90;;;;;;;;;;4948815;28;20023;-77
2022/02/19 04:02:51;;;;;;;41.58;17.13;;;;;;;;;;4952603;28;20023;-79
2022/02/19 04:05:17;;;;;;;54.28;21.58;;;;;;;;;;4963005;28;20074;-78
2022/02/19 04:07:45;;;;;;;58.03;24.70;;;;;;;;;;4968218;28;20035;-77
2022/02/19 04:10:12;;;;;;;53.53;21.70;;;;;;;;;;4979797;28;20034;-76
2022/02/19 04:12:38;;;;;;;52.45;21.08;;;;;;;;;;4965593;28;20071;-75
2022/02/19 04:15:04;;;;;;;43.78;19.02;;;;;;;;;;4965953;28;20031;-72
2022/02/19 04:17:30;;;;;;;34.55;15.73;;;;;;;;;;4967154;28;20023;-77
2022/02/19 04:19:57;;;;;;;54.30;21.60;;;;;;;;;;4965488;28;20038;-74
2022/02/19 04:22:23;;;;;;;50.78;22.08;;;;;;;;;;4967070;28;20077;-78
2022/02/19 04:24:50;;;;;;;65.85;24.63;;;;;;;;;;4966788;28;20576;-74
2022/02/19 04:27:17;;;;;;;57.30;22.70;;;;;;;;;;4967009;28;20022;-73
2022/02/19 04:29:43;;;;;;;41.38;15.80;;;;;;;;;;4967060;28;20041;-77
2022/02/19 04:32:10;;;;;;;62.00;21.17;;;;;;;;;;4965400;28;20023;-77
2022/02/19 04:34:36;;;;;;;40.17;16.75;;;;;;;;;;4965342;28;20495;-78
2022/02/19 04:37:03;;;;;;;45.30;20.67;;;;;;;;;;4966541;28;20022;-72
2022/02/19 04:39:29;;;;;;;71.65;29.70;;;;;;;;;;4966296;28;20035;-76
2022/02/19 04:41:55;;;;;;;63.53;25.40;;;;;;;;;;4952296;28;20035;-75
2022/02/19 04:44:21;;;;;;;40.30;16.83;;;;;;;;;;4940504;28;20043;-78
2022/02/19 04:46:47;;;;;;;48.33;18.70;;;;;;;;;;4946057;28;20027;-78
2022/02/19 04:49:13;;;;;;;28.15;11.77;;;;;;;;;;4967695;28;20383;-74
2022/02/19 04:51:41;;;;;;;16.10;7.22;;;;;;;;;;4986259;28;20032;-78
2022/02/19 04:54:07;;;;;;;17.10;6.40;;;;;;;;;;4985697;28;20034;-77
2022/02/19 04:56:33;;;;;;;10.68;5.30;;;;;;;;;;4985753;28;20110;-79
2022/02/19 04:59:00;;;;;;;14.73;5.70;;;;;;;;;;4984390;28;20453;-77
2022/02/19 05:01:26;;;;;;;16.52;6.40;;;;;;;;;;4985942;28;20026;-77
2022/02/19 05:03:56;;;;;;;16.58;6.95;;;;;;;;;;4986206;28;20041;-78
2022/02/19 05:06:23;;;;;;;17.23;7.55;;;;;;;;;;4985865;28;20018;-77
2022/02/19 05:08:49;;;;;;;16.85;8.20;;;;;;;;;;4976050;28;20435;-74
2022/02/19 05:11:15;;;;;;;15.95;7.53;;;;;;;;;;4945651;28;20077;-78
2022/02/19 05:13:41;;;;;;;19.13;9.10;;;;;;;;;;4944016;29;20364;-76
2022/02/19 05:16:07;;;;;;;24.00;10.85;;;;;;;;;;4946211;29;20141;-78
2022/02/19 05:18:34;;;;;;;20.63;10.73;;;;;;;;;;4946588;28;20042;-72
2022/02/19 05:21:00;;;;;;;23.35;10.82;;;;;;;;;;4946478;28;20023;-77
2022/02/19 05:23:26;;;;;;;21.80;11.75;;;;;;;;;;4945719;28;20085;-74
2022/02/19 05:25:52;;;;;;;24.33;11.30;;;;;;;;;;4940338;28;20077;-73
2022/02/19 05:28:18;;;;;;;24.25;11.23;;;;;;;;;;4944938;28;20086;-69
2022/02/19 05:30:44;;;;;;;19.98;10.43;;;;;;;;;;4946898;28;20027;-76
2022/02/19 05:33:11;;;;;;;22.42;12.25;;;;;;;;;;4945580;28;20035;-79
2022/02/19 05:35:38;;;;;;;23.30;10.45;;;;;;;;;;4946681;28;20023;-77
2022/02/19 05:38:04;;;;;;;16.42;9.48;;;;;;;;;;4945971;28;20035;-73
2022/02/19 05:40:30;;;;;;;21.88;10.57;;;;;;;;;;4966063;28;20026;-68
2022/02/19 05:42:56;;;;;;;17.42;10.20;;;;;;;;;;4965743;28;20492;-69
2022/02/19 05:45:23;;;;;;;18.02;9.18;;;;;;;;;;4965314;28;20045;-71
2022/02/19 05:47:49;;;;;;;20.80;9.43;;;;;;;;;;4965545;28;20034;-73
2022/02/19 05:50:15;;;;;;;17.17;8.90;;;;;;;;;;4964218;28;20117;-77
2022/02/19 05:52:41;;;;;;;16.48;8.95;;;;;;;;;;4965558;28;20118;-77
2022/02/19 05:55:08;;;;;;;18.00;8.43;;;;;;;;;;4965732;28;20106;-70
2022/02/19 05:57:40;;;;;;;11.23;7.10;;;;;;;;;;4963792;28;20245;-69
2022/02/19 06:00:06;;;;;;;14.10;7.10;;;;;;;;;;4965128;28;20034;-72
2022/02/19 06:02:33;;;;;;;13.35;7.30;;;;;;;;;;4965406;28;20034;-77
2022/02/19 06:04:59;;;;;;;17.25;7.53;;;;;;;;;;4965095;28;20043;-76
2022/02/19 06:07:25;;;;;;;12.18;6.35;;;;;;;;;;4963981;28;20498;-78
2022/02/19 06:09:51;;;;;;;13.00;6.82;;;;;;;;;;4948636;28;20615;-74
2022/02/19 06:12:17;;;;;;;11.57;7.60;;;;;;;;;;4945731;29;20078;-77
2022/02/19 06:14:43;;;;;;;14.77;7.85;;;;;;;;;;4946001;29;20035;-76
2022/02/19 06:17:09;;;;;;;13.23;7.88;;;;;;;;;;4944373;29;20090;-75
2022/02/19 06:19:36;;;;;;;14.98;7.43;;;;;;;;;;4943363;28;20053;-76
2022/02/19 06:22:02;;;;;;;15.48;7.60;;;;;;;;;;4946360;28;20050;-71
2022/02/19 06:24:28;;;;;;;12.23;7.43;;;;;;;;;;4946003;28;20042;-72
2022/02/19 06:26:54;;;;;;;8.85;6.68;;;;;;;;;;4943731;29;20038;-77
2022/02/19 06:29:20;;;;;;;9.63;6.22;;;;;;;;;;4945190;28;20034;-77
2022/02/19 06:31:46;;;;;;;9.90;6.10;;;;;;;;;;4944852;29;20672;-72
2022/02/19 06:34:13;;;;;;;17.73;7.07;;;;;;;;;;4944751;28;20038;-78
2022/02/19 06:36:39;;;;;;;10.80;6.10;;;;;;;;;;4944154;28;20675;-79
2022/02/19 06:39:06;;;;;;;12.52;6.63;;;;;;;;;;4945248;28;20046;-72
2022/02/19 06:41:32;;;;;;;13.48;7.05;;;;;;;;;;4949959;28;20030;-68
2022/02/19 06:43:58;;;;;;;13.70;7.40;;;;;;;;;;4961865;28;20048;-69
2022/02/19 06:46:24;;;;;;;17.73;10.88;;;;;;;;;;4962452;28;20026;-69
2022/02/19 06:48:50;;;;;;;19.35;10.70;;;;;;;;;;4962278;28;20046;-69
2022/02/19 06:51:17;;;;;;;21.58;14.57;;;;;;;;;;4961028;28;20054;-76
2022/02/19 06:53:43;;;;;;;23.90;15.02;;;;;;;;;;4960897;28;20511;-69
2022/02/19 06:56:09;;;;;;;24.35;15.48;;;;;;;;;;4962022;28;20439;-69
2022/02/19 06:58:35;;;;;;;27.70;17.30;;;;;;;;;;4961872;28;20027;-69
2022/02/19 07:01:01;;;;;;;27.30;16.50;;;;;;;;;;4946598;28;20045;-74
2022/02/19 07:03:27;;;;;;;24.60;16.23;;;;;;;;;;4949216;28;20483;-73
2022/02/19 07:05:54;;;;;;;22.65;15.13;;;;;;;;;;4958641;28;20023;-69
2022/02/19 07:08:21;;;;;;;22.60;14.93;;;;;;;;;;4948370;28;20031;-76
2022/02/19 07:10:47;;;;;;;27.00;16.48;;;;;;;;;;4959383;28;20471;-69
2022/02/19 07:13:14;;;;;;;40.00;14.20;;;;;;;;;;4961572;28;20487;-72
2022/02/19 07:15:40;;;;;;;20.85;13.30;;;;;;;;;;4959845;28;20023;-72
2022/02/19 07:18:07;;;;;;;20.55;13.40;;;;;;;;;;4960364;28;20022;-74
2022/02/19 07:20:37;;;;;;;23.95;13.90;;;;;;;;;;4958422;28;20023;-69
2022/02/19 07:23:03;;;;;;;18.48;12.48;;;;;;;;;;4959132;28;20042;-69
2022/02/19 07:25:29;;;;;;;17.52;13.43;;;;;;;;;;4959524;28;20579;-69
2022/02/19 07:27:56;;;;;;;20.30;12.50;;;;;;;;;;4961332;28;20090;-69
2022/02/19 07:30:22;;;;;;;19.58;12.75;;;;;;;;;;4960852;28;20034;-69
2022/02/19 07:32:51;;;;;;;20.27;13.88;;;;;;;;;;4959697;28;20093;-69
2022/02/19 07:35:17;;;;;;;19.60;13.80;;;;;;;;;;4961003;28;20031;-69
2022/02/19 07:37:43;;;;;;;24.98;15.27;;;;;;;;;;4960546;28;20031;-70
2022/02/19 07:40:09;;;;;;;22.75;14.45;;;;;;;;;;4961073;28;20399;-69
2022/02/19 07:42:35;;;;;;;29.40;15.68;;;;;;;;;;4960540;28;20033;-72
2022/02/19 07:45:02;;;;;;;26.52;14.27;;;;;;;;;;4958960;28;20050;-69
2022/02/19 07:47:33;;;;;;;23.38;13.00;;;;;;;;;;4966215;28;20074;-69
2022/02/19 07:58:18;;;;;;;22.92;12.68;;;;;;;;;;4965567;28;20122;-69
2022/02/19 08:00:44;;;;;;;29.80;14.05;;;;;;;;;;4967441;28;20031;-72
2022/02/19 08:03:10;;;;;;;24.88;13.77;;;;;;;;;;4966978;28;20026;-69
2022/02/19 08:05:36;;;;;;;15.57;11.57;;;;;;;;;;4967077;28;20062;-68
2022/02/19 08:08:03;;;;;;;19.45;13.00;;;;;;;;;;4967426;28;20106;-74
2022/02/19 08:10:29;;;;;;;20.50;12.50;;;;;;;;;;4961288;28;20429;-69
2022/02/19 08:12:55;;;;;;;19.17;12.20;;;;;;;;;;4966904;28;20462;-71
2022/02/19 08:15:21;;;;;;;17.27;11.45;;;;;;;;;;4967704;28;20046;-70
2022/02/19 08:17:47;;;;;;;18.73;12.55;;;;;;;;;;4967634;28;20027;-69
2022/02/19 08:20:13;;;;;;;18.13;11.65;;;;;;;;;;4967281;28;20479;-69
2022/02/19 08:22:39;;;;;;;21.58;11.73;;;;;;;;;;4966026;28;20379;-70
2022/02/19 08:25:06;;;;;;;19.08;10.70;;;;;;;;;;4965696;28;20038;-68
2022/02/19 08:27:35;;;;;;;17.08;11.13;;;;;;;;;;4967510;28;20039;-68
2022/02/19 08:30:02;;;;;;;24.35;12.38;;;;;;;;;;4965637;28;20466;-69
2022/02/19 08:32:28;;;;;;;20.52;11.75;;;;;;;;;;4965512;28;20054;-70
2022/02/19 08:34:55;;;;;;;16.88;10.63;;;;;;;;;;4967219;28;20113;-73
2022/02/19 08:37:21;;;;;;;20.77;10.93;;;;;;;;;;4967421;28;20023;-69
2022/02/19 08:39:48;;;;;;;19.08;11.23;;;;;;;;;;4967439;28;20039;-70
2022/02/19 08:42:14;;;;;;;15.77;9.73;;;;;;;;;;4979345;28;20033;-69
2022/02/19 08:44:40;;;;;;;19.73;11.27;;;;;;;;;;4985922;28;20042;-70
2022/02/19 08:47:07;;;;;;;20.95;10.68;;;;;;;;;;4986361;28;20050;-72
2022/02/19 08:49:34;;;;;;;21.08;11.73;;;;;;;;;;4986494;28;20095;-74
2022/02/19 08:52:00;;;;;;;17.88;11.32;;;;;;;;;;4986826;28;20034;-69
2022/02/19 08:54:26;;;;;;;18.45;11.60;;;;;;;;;;4986481;28;20060;-69
2022/02/19 08:56:54;;;;;;;18.00;12.13;;;;;;;;;;4977664;28;20038;-70
2022/02/19 08:59:21;;;;;;;19.40;10.85;;;;;;;;;;4963228;28;20027;-72
2022/02/19 09:01:47;;;;;;;18.73;11.02;;;;;;;;;;4965309;28;20030;-71
2022/02/19 09:04:13;;;;;;;17.88;11.02;;;;;;;;;;4965975;28;20126;-70
2022/02/19 09:06:40;;;;;;;17.55;10.82;;;;;;;;;;4961769;28;20046;-70
2022/02/19 09:09:06;;;;;;;17.55;10.13;;;;;;;;;;4945260;28;20031;-69
2022/02/19 09:11:35;;;;;;;18.90;11.77;;;;;;;;;;4946475;28;20037;-70
2022/02/19 09:14:05;;;;;;;23.75;11.55;;;;;;;;;;4953371;28;20034;-70
2022/02/19 09:16:34;;;;;;;22.05;10.90;;;;;;;;;;4966119;28;20086;-74
2022/02/19 09:19:01;;;;;;;18.90;10.32;;;;;;;;;;4965721;28;20030;-71
2022/02/19 09:21:30;;;;;;;11.88;8.20;;;;;;;;;;4966393;28;20050;-73
2022/02/19 09:23:56;;;;;;;12.10;7.25;;;;;;;;;;4964245;28;20071;-69
2022/02/19 09:26:23;;;;;;;17.50;8.60;;;;;;;;;;4965267;28;20062;-70
2022/02/19 09:28:49;;;;;;;15.27;7.13;;;;;;;;;;4964879;28;20018;-69
2022/02/19 09:31:16;;;;;;;21.27;7.70;;;;;;;;;;4964526;28;20472;-74
2022/02/19 09:33:42;;;;;;;12.77;6.43;;;;;;;;;;4964778;28;20046;-69
2022/02/19 09:36:09;;;;;;;17.55;6.53;;;;;;;;;;4964647;28;20690;-69
2022/02/19 09:38:36;;;;;;;12.57;6.25;;;;;;;;;;4964040;28;20463;-69
2022/02/19 09:41:07;;;;;;;16.42;8.10;;;;;;;;;;4964627;28;20477;-70
2022/02/19 09:43:33;;;;;;;15.20;6.82;;;;;;;;;;4963995;28;20102;-69
2022/02/19 09:46:00;;;;;;;9.80;6.88;;;;;;;;;;4965461;28;20096;-69
2022/02/19 09:48:26;;;;;;;12.32;6.97;;;;;;;;;;4965626;28;20089;-70
2022/02/19 09:50:54;;;;;;;13.68;7.57;;;;;;;;;;4965225;28;20034;-72
2022/02/19 09:53:20;;;;;;;14.35;8.23;;;;;;;;;;4965356;28;20109;-72
2022/02/19 09:55:46;;;;;;;15.57;7.13;;;;;;;;;;4962997;28;20066;-69
2022/02/19 09:58:12;;;;;;;12.30;7.60;;;;;;;;;;4964511;28;20657;-70
2022/02/19 10:00:40;;;;;;;11.60;7.00;;;;;;;;;;4964636;28;20180;-69
2022/02/19 10:03:13;;;;;;;12.52;7.28;;;;;;;;;;4964239;28;20098;-70
2022/02/19 10:05:39;;;;;;;15.90;7.43;;;;;;;;;;4963078;28;20046;-70
2022/02/19 10:08:08;;;;;;;13.57;8.70;;;;;;;;;;4962583;28;20080;-71
2022/02/19 10:10:36;;;;;;;10.07;7.13;;;;;;;;;;4964118;28;20023;-69
2022/02/19 10:13:02;;;;;;;13.18;7.57;;;;;;;;;;4963765;28;20110;-70
2022/02/19 10:15:39;;;;;;;18.67;7.30;;;;;;;;;;4964631;28;20030;-69
2022/02/19 10:18:25;;;;;;;15.50;8.57;;;;;;;;;;4965194;28;20030;-70
2022/02/19 10:20:52;;;;;;;13.20;7.97;;;;;;;;;;4964136;28;20030;-70
2022/02/19 10:23:19;;;;;;;12.07;7.90;;;;;;;;;;4964077;28;20105;-72
2022/02/19 10:26:01;;;;;;;15.30;8.05;;;;;;;;;;4963771;28;20483;-69
2022/02/19 10:28:27;;;;;;;12.52;7.25;;;;;;;;;;4961369;28;20030;-75
2022/02/19 10:30:53;;;;;;;13.52;7.13;;;;;;;;;;4961158;28;20117;-69
2022/02/19 10:33:23;;;;;;;15.43;9.13;;;;;;;;;;4961310;28;20030;-70
2022/02/19 10:35:51;;;;;;;13.68;8.25;;;;;;;;;;4960142;28;20065;-70
2022/02/19 10:38:19;;;;;;;11.73;7.70;;;;;;;;;;4960754;28;20077;-69
2022/02/19 10:40:50;;;;;;;14.27;7.60;;;;;;;;;;4959498;28;20030;-69
2022/02/19 10:43:17;;;;;;;15.27;8.27;;;;;;;;;;4949725;28;20030;-73
2022/02/19 10:45:54;;;;;;;11.43;7.57;;;;;;;;;;4946471;28;20043;-68
2022/02/19 10:48:24;;;;;;;16.95;8.15;;;;;;;;;;4944398;29;20039;-71
2022/02/19 10:50:51;;;;;;;17.08;8.57;;;;;;;;;;4943396;29;20357;-72
2022/02/19 10:53:25;;;;;;;23.77;9.48;;;;;;;;;;4979600;28;20023;-72
2022/02/19 10:55:51;;;;;;;19.67;9.48;;;;;;;;;;4969962;28;20023;-68
2022/02/19 10:58:18;;;;;;;14.02;8.25;;;;;;;;;;4959236;28;20042;-69
2022/02/19 11:00:44;;;;;;;15.52;8.52;;;;;;;;;;4967000;28;20101;-73
2022/02/19 11:03:11;;;;;;;15.30;8.93;;;;;;;;;;4981063;28;20025;-69
2022/02/19 11:05:38;;;;;;;14.70;7.45;;;;;;;;;;4962833;28;20038;-68
2022/02/19 11:08:04;;;;;;;15.68;9.27;;;;;;;;;;4962433;28;20073;-68
2022/02/19 11:10:33;;;;;;;16.02;8.88;;;;;;;;;;4964151;28;20034;-68
2022/02/19 11:12:59;;;;;;;17.45;9.27;;;;;;;;;;4947090;28;20023;-68
2022/02/19 11:15:27;;;;;;;17.48;9.55;;;;;;;;;;4957973;28;20122;-72
2022/02/19 11:17:53;;;;;;;14.30;8.70;;;;;;;;;;4980394;28;20572;-69
2022/02/19 11:20:24;;;;;;;17.15;9.63;;;;;;;;;;4976127;28;20475;-73
2022/02/19 11:22:51;;;;;;;11.48;7.85;;;;;;;;;;4955570;28;20043;-74
2022/02/19 11:25:19;;;;;;;11.35;7.10;;;;;;;;;;4956194;28;20057;-69
2022/02/19 11:27:47;;;;;;;13.23;7.65;;;;;;;;;;4963330;28;20058;-68
2022/02/19 11:30:14;;;;;;;18.67;7.95;;;;;;;;;;4959939;28;20447;-69
2022/02/19 11:32:41;;;;;;;15.77;8.18;;;;;;;;;;4956863;28;20027;-73
2022/02/19 11:35:08;;;;;;;19.95;7.38;;;;;;;;;;4950994;28;20031;-72
2022/02/19 11:37:42;;;;;;;15.20;7.63;;;;;;;;;;4952823;28;20031;-69
2022/02/19 11:40:10;;;;;;;11.00;7.32;;;;;;;;;;4952590;28;20116;-69
2022/02/19 11:42:39;;;;;;;11.85;7.20;;;;;;;;;;4955423;28;20027;-69
2022/02/19 11:45:19;;;;;;;11.60;7.00;;;;;;;;;;4968781;28;20116;-69
2022/02/19 11:47:46;;;;;;;11.88;7.85;;;;;;;;;;4979881;28;20038;-70
2022/02/19 11:50:19;;;;;;;17.15;7.53;;;;;;;;;;4962465;28;20023;-68
2022/02/19 11:52:46;;;;;;;20.75;9.05;;;;;;;;;;4961412;28;20512;-69
2022/02/19 11:55:31;;;;;;;13.30;8.05;;;;;;;;;;4949390;28;20055;-69
2022/02/19 11:58:05;;;;;;;14.50;8.23;;;;;;;;;;4959927;28;20093;-70
2022/02/19 12:00:54;;;;;;;10.13;7.20;;;;;;;;;;4975994;28;20031;-72
2022/02/19 12:03:28;;;;;;;14.20;8.18;;;;;;;;;;4950360;28;20027;-69
2022/02/19 12:06:15;;;;;;;14.77;7.18;;;;;;;;;;4961868;28;20043;-73
2022/02/19 12:08:51;;;;;;;12.10;7.22;;;;;;;;;;4963541;28;20265;-71
2022/02/19 12:11:23;;;;;;;13.00;7.90;;;;;;;;;;4964743;28;20115;-69
2022/02/19 12:13:53;;;;;;;14.82;7.53;;;;;;;;;;4951463;28;20039;-69
2022/02/19 12:16:32;;;;;;;13.00;8.10;;;;;;;;;;4955842;28;20043;-71
2022/02/19 12:19:05;;;;;;;9.82;7.75;;;;;;;;;;4962335;28;20542;-72
2022/02/19 12:21:31;;;;;;;12.00;9.23;;;;;;;;;;4962146;28;20042;-72
2022/02/19 12:24:13;;;;;;;16.23;9.70;;;;;;;;;;4962136;28;20763;-71
2022/02/19 12:26:57;;;;;;;14.02;8.75;;;;;;;;;;4961141;28;20030;-71
2022/02/19 12:29:35;;;;;;;14.52;8.23;;;;;;;;;;4954967;28;20059;-72
2022/02/19 12:32:19;;;;;;;13.05;8.60;;;;;;;;;;4942283;28;20058;-70
2022/02/19 12:35:03;;;;;;;15.88;9.32;;;;;;;;;;4944443;29;20027;-70
2022/02/19 12:37:33;;;;;;;13.38;6.90;;;;;;;;;;4943757;29;20054;-72
2022/02/19 12:39:59;;;;;;;16.23;8.13;;;;;;;;;;4951542;28;20027;-71
2022/02/19 12:42:28;;;;;;;13.68;7.40;;;;;;;;;;4962535;28;20438;-71
2022/02/19 12:45:00;;;;;;;14.13;6.75;;;;;;;;;;4963627;28;20038;-70
2022/02/19 12:47:26;;;;;;;;;;;;;;;;;;4952792;28;20718;-70
2022/02/19 12:49:52;;;;;;;12.60;7.28;;;;;;;;;;4963564;28;19921;-71
2022/02/19 12:52:22;;;;;;;20.90;8.18;;;;;;;;;;4963831;28;20177;-71
2022/02/19 12:54:49;;;;;;;12.65;7.47;;;;;;;;;;4963807;28;20026;-71
2022/02/19 12:57:17;;;;;;;9.73;6.25;;;;;;;;;;4963418;28;20034;-70
2022/02/19 12:59:44;;;;;;;11.32;7.25;;;;;;;;;;4963633;28;20030;-71
2022/02/19 13:02:11;;;;;;;12.23;7.47;;;;;;;;;;4962416;28;20023;-71
2022/02/19 13:04:37;;;;;;;9.80;6.45;;;;;;;;;;4963094;28;20062;-70
2022/02/19 13:07:05;;;;;;;15.95;6.40;;;;;;;;;;4963785;28;20027;-71
2022/02/19 13:09:31;;;;;;;14.18;6.40;;;;;;;;;;4962307;28;20165;-70
2022/02/19 13:11:58;;;;;;;7.03;5.10;;;;;;;;;;4962507;28;20030;-71
2022/02/19 13:14:26;;;;;;;10.18;5.47;;;;;;;;;;4949653;28;20036;-70
2022/02/19 13:16:56;;;;;;;9.77;5.53;;;;;;;;;;4944478;28;20031;-70
2022/02/19 13:19:22;;;;;;;8.23;5.88;;;;;;;;;;4943580;29;20031;-71
2022/02/19 13:21:48;;;;;;;12.20;6.05;;;;;;;;;;4943852;28;20078;-70
2022/02/19 13:24:17;;;;;;;11.70;5.97;;;;;;;;;;4943906;28;20047;-71
2022/02/19 13:26:43;;;;;;;11.10;4.72;;;;;;;;;;4942971;29;20551;-70
2022/02/19 13:29:10;;;;;;;12.07;6.05;;;;;;;;;;4944066;29;20431;-69
2022/02/19 13:31:37;;;;;;;11.23;6.15;;;;;;;;;;4947953;28;20024;-70
2022/02/19 13:34:05;;;;;;;8.32;5.93;;;;;;;;;;4982739;28;20510;-71
2022/02/19 13:36:32;;;;;;;12.68;6.85;;;;;;;;;;4982486;28;20065;-71
2022/02/19 13:38:58;;;;;;;12.50;6.25;;;;;;;;;;4981148;28;20336;-69
2022/02/19 13:41:24;;;;;;;12.30;6.50;;;;;;;;;;4969815;28;20454;-70
2022/02/19 13:44:01;;;;;;;9.57;6.25;;;;;;;;;;4958906;28;20025;-71
2022/02/19 13:46:27;;;;;;;11.45;7.70;;;;;;;;;;4962717;28;20141;-70
2022/02/19 13:48:55;;;;;;;9.60;6.53;;;;;;;;;;4962708;28;20037;-71
2022/02/19 13:51:30;;;;;;;12.02;7.70;;;;;;;;;;4963320;28;20103;-70
2022/02/19 13:54:12;;;;;;;11.02;7.53;;;;;;;;;;4959787;28;20035;-71
2022/02/19 13:56:39;;;;;;;12.60;6.63;;;;;;;;;;4955178;28;20061;-71
2022/02/19 13:59:05;;;;;;;13.80;7.88;;;;;;;;;;4965820;28;20026;-72
2022/02/19 14:01:41;;;;;;;20.58;7.85;;;;;;;;;;4962818;28;20026;-70
2022/02/19 14:04:07;;;;;;;12.38;6.55;;;;;;;;;;4965145;28;20057;-71
2022/02/19 14:06:37;;;;;;;16.73;7.47;;;;;;;;;;4964718;28;20531;-71
2022/02/19 14:09:20;;;;;;;13.57;8.07;;;;;;;;;;4961103;28;20035;-72
2022/02/19 14:11:51;;;;;;;12.68;8.13;;;;;;;;;;4952613;28;20019;-73
2022/02/19 14:14:30;;;;;;;13.35;7.32;;;;;;;;;;4954204;28;20058;-71
2022/02/19 14:17:19;;;;;;;14.73;7.78;;;;;;;;;;4943655;28;20122;-71
2022/02/19 14:19:55;;;;;;;11.63;7.28;;;;;;;;;;4945410;28;20105;-72
2022/02/19 14:22:22;;;;;;;15.07;8.32;;;;;;;;;;4944768;29;20055;-72
2022/02/19 14:25:04;;;;;;;8.98;6.28;;;;;;;;;;4943441;29;20035;-72
2022/02/19 14:27:45;;;;;;;11.35;6.43;;;;;;;;;;4944789;29;20030;-72
2022/02/19 14:30:12;;;;;;;12.95;6.78;;;;;;;;;;4944945;29;20027;-72
2022/02/19 14:32:38;;;;;;;12.75;7.05;;;;;;;;;;4942828;29;20031;-72
2022/02/19 14:35:04;;;;;;;11.10;7.00;;;;;;;;;;4944409;29;20636;-71
2022/02/19 14:37:31;;;;;;;11.68;7.53;;;;;;;;;;4944675;29;20023;-71
2022/02/19 14:39:57;;;;;;;15.65;8.85;;;;;;;;;;4944761;29;20736;-71